Terminal Aerodrome Forecast
Issued by NWS

Home | Current Version | Previous Version | Text Only | Print | Product List | Glossary On
Versions: 1 2 3 4 5 6 7 8 9 10 11 12 13 14 15 16 17 18 19 20 21 22 23
000
FTUS45 KGJT 232024 AAA
TAFTEX
TAF AMD
KTEX 232024Z 2320/2418 19005KT P6SM VCSH SCT027 BKN035 OVC040
      TEMPO 2320/2324 2SM -SHSN BR OVC022
     FM240000 22013G24KT 2SM -SHSN OVC020
     FM241000 27007KT P6SM VCSH OVC020
     FM241700 26006KT P6SM SCT150=

USA.gov is the U.S. government's official web portal to all federal, state and local government web resources and services.